createdAt,value
2023-03-21T00:01:03.852Z,7.96
2023-03-21T00:03:34.455Z,7.97
2023-03-21T00:06:09.540Z,8.16
2023-03-21T00:08:40.050Z,7.88
2023-03-21T00:11:10.525Z,7.93
2023-03-21T00:13:44.106Z,7.90
2023-03-21T00:16:22.292Z,7.90
2023-03-21T00:18:59.906Z,8.16
2023-03-21T00:22:05.471Z,7.89
2023-03-21T00:24:22.365Z,8.10
2023-03-21T00:26:51.321Z,7.97
2023-03-21T00:29:20.364Z,8.21
2023-03-21T00:31:48.534Z,8.21
2023-03-21T00:34:20.141Z,8.19
2023-03-21T00:36:55.880Z,8.10
2023-03-21T00:39:23.898Z,8.02
2023-03-21T00:41:53.113Z,7.97
2023-03-21T00:44:23.546Z,7.76
2023-03-21T00:47:06.152Z,7.98
2023-03-21T00:49:35.796Z,7.96
2023-03-21T00:52:38.121Z,7.67
2023-03-21T00:54:55.778Z,8.03
2023-03-21T00:57:37.473Z,8.05
2023-03-21T01:00:10.871Z,8.14
2023-03-21T01:03:02.616Z,8.12
2023-03-21T01:05:58.600Z,8.21
2023-03-21T01:08:35.154Z,8.16
2023-03-21T01:11:14.226Z,7.84
2023-03-21T01:13:52.944Z,8.03
2023-03-21T01:16:25.673Z,8.05
2023-03-21T01:18:54.057Z,7.98
2023-03-21T01:21:23.236Z,7.95
2023-03-21T01:23:51.659Z,8.02
2023-03-21T01:26:19.979Z,8.00
2023-03-21T01:28:47.938Z,7.98
2023-03-21T01:31:17.643Z,7.71
2023-03-21T01:33:46.412Z,7.72
2023-03-21T01:36:24.898Z,7.99
2023-03-21T01:38:57.144Z,7.96
2023-03-21T01:41:43.806Z,7.93
2023-03-21T01:44:20.217Z,7.90
2023-03-21T01:47:11.386Z,7.66
2023-03-21T01:49:46.036Z,7.84
2023-03-21T01:52:39.571Z,7.99
2023-03-21T01:55:28.133Z,8.03
2023-03-21T01:58:30.131Z,8.02
2023-03-21T02:01:07.248Z,8.00
2023-03-21T02:03:52.336Z,8.04
2023-03-21T02:06:36.880Z,8.02
2023-03-21T02:09:24.128Z,7.96
2023-03-21T02:11:54.464Z,7.65
2023-03-21T02:14:29.292Z,7.91
2023-03-21T02:17:48.930Z,7.86
2023-03-21T02:20:45.377Z,7.55
2023-03-21T02:23:54.460Z,7.86
2023-03-21T02:26:41.941Z,7.85
2023-03-21T02:29:39.409Z,7.86
2023-03-21T02:32:41.071Z,7.85
2023-03-21T02:35:29.887Z,7.83
2023-03-21T02:38:08.192Z,7.84
2023-03-21T02:40:49.708Z,7.85
2023-03-21T02:43:24.018Z,7.87
2023-03-21T02:46:43.931Z,7.65
2023-03-21T02:49:18.739Z,7.89
2023-03-21T02:51:49.952Z,7.88
2023-03-21T02:54:35.085Z,7.82
2023-03-21T02:57:11.231Z,7.01
2023-03-21T02:59:51.611Z,7.62
2023-03-21T03:02:28.967Z,7.54
2023-03-21T03:04:58.810Z,7.86
2023-03-21T03:07:52.445Z,7.78
2023-03-21T03:10:44.778Z,7.59
2023-03-21T03:13:50.484Z,7.85
2023-03-21T03:16:58.740Z,7.82
2023-03-21T03:19:44.709Z,7.84
2023-03-21T03:22:38.734Z,7.84
2023-03-21T03:25:23.074Z,7.82
2023-03-21T03:27:58.232Z,7.81
2023-03-21T03:30:39.252Z,7.25
2023-03-21T03:33:11.079Z,7.67
2023-03-21T03:35:39.183Z,7.75
2023-03-21T03:38:09.342Z,7.78
2023-03-21T03:40:44.407Z,7.58
2023-03-21T03:43:51.107Z,7.53
2023-03-21T03:46:47.444Z,7.81
2023-03-21T03:49:24.288Z,7.78
2023-03-21T03:52:00.466Z,7.78
2023-03-21T03:54:42.553Z,7.75
2023-03-21T03:57:15.038Z,7.70
2023-03-21T03:59:46.462Z,7.72
2023-03-21T04:02:43.746Z,7.42
2023-03-21T04:05:12.673Z,7.67
2023-03-21T04:07:41.448Z,7.43
2023-03-21T04:10:10.799Z,7.66
2023-03-21T04:12:42.639Z,7.60
2023-03-21T04:15:25.842Z,7.66
2023-03-21T04:18:00.694Z,7.64
2023-03-21T04:20:36.526Z,7.41
2023-03-21T04:23:12.887Z,7.64
2023-03-21T04:25:55.894Z,7.56
2023-03-21T04:28:30.855Z,7.66
2023-03-21T04:31:24.133Z,7.60
2023-03-21T04:33:56.116Z,7.57
2023-03-21T04:36:27.763Z,7.40
2023-03-21T04:39:01.084Z,7.69
2023-03-21T04:41:31.100Z,7.69
2023-03-21T04:43:59.163Z,7.49
2023-03-21T04:46:27.317Z,7.65
2023-03-21T04:48:56.358Z,7.63
2023-03-21T04:51:25.197Z,7.61
2023-03-21T04:53:57.707Z,7.38
2023-03-21T04:56:34.217Z,7.64
2023-03-21T04:59:15.378Z,7.65
2023-03-21T05:01:45.016Z,7.63
2023-03-21T05:04:14.863Z,7.59
2023-03-21T05:06:44.104Z,7.60
2023-03-21T05:09:13.526Z,7.51
2023-03-21T05:11:42.757Z,7.60
2023-03-21T05:14:17.326Z,7.57
2023-03-21T05:16:53.482Z,7.49
2023-03-21T05:19:35.517Z,7.56
2023-03-21T05:22:12.312Z,7.62
2023-03-21T05:24:42.240Z,7.61
2023-03-21T05:27:34.269Z,7.39
2023-03-21T05:30:10.777Z,7.43
2023-03-21T05:32:39.851Z,7.63
2023-03-21T05:35:11.655Z,7.39
2023-03-21T05:37:39.765Z,7.54
2023-03-21T05:40:10.291Z,7.66
2023-03-21T05:42:42.796Z,7.76
2023-03-21T05:45:18.813Z,7.71
2023-03-21T05:47:47.440Z,7.84
2023-03-21T05:50:16.548Z,7.95
2023-03-21T05:52:52.188Z,7.94
2023-03-21T05:55:21.778Z,7.89
2023-03-21T05:57:50.419Z,7.99
2023-03-21T06:00:25.134Z,8.01
2023-03-21T06:03:14.071Z,7.92
2023-03-21T06:06:09.324Z,7.98
2023-03-21T06:08:42.298Z,8.02
2023-03-21T06:11:31.488Z,7.97
2023-03-21T06:14:17.158Z,7.76
2023-03-21T06:16:51.097Z,7.88
2023-03-21T06:19:19.491Z,7.96
2023-03-21T06:22:07.854Z,7.97
2023-03-21T06:24:39.544Z,7.92
2023-03-21T06:27:07.566Z,7.73
2023-03-21T06:29:49.562Z,7.90
2023-03-21T06:32:17.776Z,7.87
2023-03-21T06:34:47.444Z,8.02
2023-03-21T06:37:17.767Z,8.08
2023-03-21T06:39:47.117Z,8.15
2023-03-21T06:42:16.031Z,8.06
2023-03-21T06:44:44.642Z,8.27
2023-03-21T06:47:16.418Z,8.51
2023-03-21T06:49:47.057Z,8.48
2023-03-21T06:52:15.194Z,8.27
2023-03-21T06:54:44.419Z,8.58
2023-03-21T06:57:15.950Z,8.43
2023-03-21T06:59:44.071Z,8.44
2023-03-21T07:02:17.857Z,8.38
2023-03-21T07:04:58.838Z,8.15
2023-03-21T07:07:29.978Z,8.39
2023-03-21T07:09:58.711Z,8.30
2023-03-21T07:12:34.397Z,8.33
2023-03-21T07:15:22.180Z,8.47
2023-03-21T07:17:50.435Z,8.55
2023-03-21T07:20:18.633Z,8.63
2023-03-21T07:22:46.906Z,8.42
2023-03-21T07:25:17.646Z,8.84
2023-03-21T07:27:46.633Z,8.93
2023-03-21T07:30:15.020Z,8.78
2023-03-21T07:32:43.654Z,9.06
2023-03-21T07:35:14.999Z,9.15
2023-03-21T07:37:44.029Z,8.85
2023-03-21T07:40:17.765Z,8.98
2023-03-21T07:42:48.788Z,9.06
2023-03-21T07:45:25.485Z,9.07
2023-03-21T07:47:54.783Z,9.09
2023-03-21T07:50:25.880Z,8.95
2023-03-21T07:52:54.517Z,9.00
2023-03-21T07:55:23.525Z,9.09
2023-03-21T07:57:53.448Z,8.71
2023-03-21T08:00:25.652Z,8.72
2023-03-21T08:02:58.901Z,8.47
2023-03-21T08:05:39.849Z,8.71
2023-03-21T08:08:08.911Z,8.92
2023-03-21T08:10:37.914Z,8.64
2023-03-21T08:13:06.347Z,8.90
2023-03-21T08:15:34.456Z,8.81
2023-03-21T08:18:02.513Z,8.98
2023-03-21T08:20:31.299Z,8.85
2023-03-21T08:22:59.373Z,9.19
2023-03-21T08:25:27.877Z,9.17
2023-03-21T08:27:56.265Z,9.19
2023-03-21T08:30:29.245Z,9.14
2023-03-21T08:33:01.352Z,9.18
2023-03-21T08:35:31.797Z,9.29
2023-03-21T08:38:02.639Z,9.31
2023-03-21T08:40:33.773Z,9.16
2023-03-21T08:43:01.966Z,9.33
2023-03-21T08:45:30.977Z,9.32
2023-03-21T08:47:59.570Z,9.03
2023-03-21T08:50:29.729Z,9.09
2023-03-21T08:52:58.185Z,8.98
2023-03-21T08:55:26.664Z,9.09
2023-03-21T08:57:55.120Z,8.98
2023-03-21T09:00:24.092Z,9.13
2023-03-21T09:02:54.479Z,9.18
2023-03-21T09:05:26.453Z,9.40
2023-03-21T09:07:54.700Z,9.48
2023-03-21T09:10:24.282Z,9.38
2023-03-21T09:12:55.184Z,9.15
2023-03-21T09:15:27.654Z,9.06
2023-03-21T09:17:58.652Z,9.19
2023-03-21T09:20:31.319Z,9.22
2023-03-21T09:23:01.249Z,9.22
2023-03-21T09:25:32.800Z,9.05
2023-03-21T09:28:02.128Z,9.21
2023-03-21T09:30:30.859Z,9.31
2023-03-21T09:33:06.668Z,9.35
2023-03-21T09:35:35.573Z,9.20
2023-03-21T09:38:05.709Z,8.94
2023-03-21T09:40:55.263Z,8.93
2023-03-21T09:43:38.973Z,8.78
2023-03-21T09:46:33.148Z,8.69
2023-03-21T09:49:10.028Z,8.48
2023-03-21T09:51:46.504Z,8.43
2023-03-21T09:54:39.568Z,8.54
2023-03-21T09:57:26.225Z,8.25
2023-03-21T09:59:57.926Z,8.05
2023-03-21T10:02:39.777Z,8.32
2023-03-21T10:05:20.124Z,8.36
2023-03-21T10:08:23.357Z,8.36
2023-03-21T10:10:56.819Z,8.54
2023-03-21T10:13:35.856Z,8.22
2023-03-21T10:16:25.431Z,8.37
2023-03-21T10:18:55.900Z,8.58
2023-03-21T10:21:56.664Z,8.61
2023-03-21T10:24:28.200Z,8.61
2023-03-21T10:26:57.377Z,8.55
2023-03-21T10:29:30.850Z,8.61
2023-03-21T10:31:59.476Z,8.88
2023-03-21T10:34:42.927Z,9.04
2023-03-21T10:37:13.551Z,8.97
2023-03-21T10:39:47.117Z,8.85
2023-03-21T10:42:26.223Z,9.12
2023-03-21T10:44:57.848Z,9.11
2023-03-21T10:47:30.798Z,9.28
2023-03-21T10:50:14.243Z,9.26
2023-03-21T10:53:00.558Z,9.95
2023-03-21T10:55:33.263Z,10.28
2023-03-21T10:58:19.069Z,10.45
2023-03-21T11:03:08.638Z,10.76
2023-03-21T11:05:40.428Z,10.50
2023-03-21T11:08:18.156Z,10.00
2023-03-21T11:11:12.682Z,10.29
2023-03-21T11:13:44.468Z,9.86
2023-03-21T11:16:44.809Z,10.36
2023-03-21T11:19:38.503Z,10.56
2023-03-21T11:22:08.650Z,10.68
2023-03-21T11:24:37.078Z,10.31
2023-03-21T11:27:09.245Z,10.84
2023-03-21T11:29:41.553Z,10.94
2023-03-21T11:32:36.204Z,11.08
2023-03-21T11:35:14.904Z,11.13
2023-03-21T11:37:53.610Z,10.77
2023-03-21T11:40:33.751Z,11.08
2023-03-21T11:43:27.804Z,11.33
2023-03-21T11:46:05.513Z,11.88
2023-03-21T11:48:47.449Z,11.86
2023-03-21T11:51:29.310Z,12.54
2023-03-21T11:54:30.125Z,12.79
2023-03-21T11:57:22.989Z,12.14
2023-03-21T12:00:15.544Z,11.97
2023-03-21T12:03:38.197Z,11.88
2023-03-21T12:06:25.761Z,11.85
2023-03-21T12:09:26.807Z,11.70
2023-03-21T12:12:16.726Z,11.72
2023-03-21T12:15:18.898Z,11.23
2023-03-21T12:18:14.706Z,10.97
2023-03-21T12:21:04.153Z,10.87
2023-03-21T12:23:47.292Z,11.08
2023-03-21T12:26:33.218Z,11.19
2023-03-21T12:29:30.572Z,10.99
2023-03-21T12:32:30.713Z,10.90
2023-03-21T12:35:20.434Z,10.62
2023-03-21T12:38:24.624Z,10.66
2023-03-21T12:41:09.961Z,10.33
2023-03-21T12:44:16.730Z,10.48
2023-03-21T12:46:55.179Z,10.19
2023-03-21T12:49:38.738Z,10.27
2023-03-21T12:52:19.947Z,10.11
2023-03-21T12:55:17.961Z,10.69
2023-03-21T12:58:11.917Z,10.69
2023-03-21T13:00:45.036Z,10.74
2023-03-21T13:03:40.202Z,10.38
2023-03-21T13:06:18.352Z,10.40
2023-03-21T13:08:49.682Z,10.63
2023-03-21T13:11:25.461Z,10.36
2023-03-21T13:13:56.765Z,10.72
2023-03-21T13:17:02.453Z,10.89
2023-03-21T13:20:01.937Z,10.52
2023-03-21T13:22:31.772Z,10.38
2023-03-21T13:25:06.732Z,10.62
2023-03-21T13:27:39.436Z,10.49
2023-03-21T13:30:27.892Z,10.60
2023-03-21T13:33:10.874Z,10.77
2023-03-21T13:35:43.232Z,10.88
2023-03-21T13:38:23.438Z,10.96
2023-03-21T13:41:13.993Z,10.95
2023-03-21T13:44:01.976Z,10.94
2023-03-21T13:46:34.184Z,10.92
2023-03-21T13:49:09.667Z,11.34
2023-03-21T13:51:51.444Z,11.64
2023-03-21T13:54:34.489Z,11.71
2023-03-21T13:57:06.592Z,11.86
2023-03-21T13:59:45.141Z,11.84
2023-03-21T14:02:25.405Z,11.64
2023-03-21T14:05:17.997Z,11.42
2023-03-21T14:07:54.729Z,11.05
2023-03-21T14:10:35.633Z,10.66
2023-03-21T14:13:08.165Z,10.53
2023-03-21T14:15:59.797Z,10.80
2023-03-21T14:18:52.427Z,10.71
2023-03-21T14:21:25.195Z,10.70
2023-03-21T14:24:11.731Z,10.35
2023-03-21T14:26:52.624Z,10.50
2023-03-21T14:29:34.773Z,10.51
2023-03-21T14:32:05.876Z,10.35
2023-03-21T14:34:36.293Z,10.56
2023-03-21T14:37:11.476Z,10.47
2023-03-21T14:39:39.790Z,10.29
2023-03-21T14:42:13.802Z,10.38
2023-03-21T14:44:55.570Z,10.22
2023-03-21T14:47:28.178Z,10.04
2023-03-21T14:49:57.683Z,10.34
2023-03-21T14:52:32.415Z,10.33
2023-03-21T14:55:14.934Z,10.51
2023-03-21T14:57:43.444Z,10.41
2023-03-21T15:00:26.695Z,10.25
2023-03-21T15:02:58.864Z,10.23
2023-03-21T15:05:33.172Z,10.12
2023-03-21T15:08:14.323Z,10.09
2023-03-21T15:10:43.401Z,10.07
2023-03-21T15:13:18.836Z,9.97
2023-03-21T15:15:48.837Z,9.65
2023-03-21T15:18:27.371Z,9.29
2023-03-21T15:21:00.671Z,9.35
2023-03-21T15:23:40.666Z,9.40
2023-03-21T15:26:14.028Z,9.48
2023-03-21T15:28:44.419Z,9.52
2023-03-21T15:31:19.808Z,9.45
2023-03-21T15:33:49.684Z,9.57
2023-03-21T15:36:27.090Z,9.39
2023-03-21T15:38:56.717Z,9.46
2023-03-21T15:41:25.224Z,9.37
2023-03-21T15:44:06.657Z,9.21
2023-03-21T15:46:49.710Z,8.82
2023-03-21T15:49:23.132Z,9.01
2023-03-21T15:52:12.919Z,8.84
2023-03-21T15:54:48.501Z,8.77
2023-03-21T15:57:33.346Z,8.68
